Brave Knight — ODVW — position and weather

sailwx.info

Track history (hours):
 
Tides and Currents Weather Stations Pressure Air Temp Water Temp Dewpoint Dewpoint Depression Visibility Wind Speed Wind Dir Waves Ship Positions

Brave Knight

Last reported at 2018-May-22 16:00 UTC. Time now 2018-May-22 16:05 UTC.
Position N 45°23' E 036°40'.

Length 102 m; draft 7.5 m.

Type: Cargo ship. MMSI: 450552000.

Date/timePositionNaut miles runAvg speedWind from/ knotsBaromVisibWave heightAir tempDewpointWater temp
2018-May-22 16:00N 45°23' E 036°40'4 8.1
2018-May-22 15:30N 45°27' E 036°40'2 3.4
2018-May-22 15:00N 45°28' E 036°38'0 0.0
2018-May-22 14:30N 45°28' E 036°38'0 0.0
2018-May-22 14:00N 45°28' E 036°38'0 0.0
2018-May-22 13:30N 45°28' E 036°38'0 0.0
2018-May-22 13:00N 45°28' E 036°38'0 0.8
2018-May-22 12:30N 45°28' E 036°38'3 7.0
2018-May-22 12:00N 45°32' E 036°38'6 9.6
2018-May-22 11:21N 45°38' E 036°38'  
2018-May-18 23:15N 45°34' E 036°41'310.9
2018-May-18 23:00N 45°32' E 036°42'510.9
2018-May-18 22:30N 45°26' E 036°42'5 9.9
2018-May-18 22:00N 45°21' E 036°39'12 8.1
2018-May-18 20:31N 45°12' E 036°30'0 0.2
2018-May-18 19:49N 45°12' E 036°29'0 0.0
2018-May-18 19:27N 45°12' E 036°30'0 0.0
2018-May-18 18:59N 45°12' E 036°30'0 0.1
2018-May-18 18:30N 45°12' E 036°29'0 0.0
2018-May-18 18:00N 45°12' E 036°29'0 0.0
2018-May-18 17:30N 45°12' E 036°29'1 2.6
2018-May-18 16:59N 45°10' E 036°30'  
Track history (hours):
 
Tides and Currents Weather Stations Pressure Air Temp Water Temp Dewpoint Dewpoint Depression Visibility Wind Speed Wind Dir Waves Ship Positions

Brave Knight

Last reported at 2018-May-22 16:00 UTC. Time now 2018-May-22 16:05 UTC.
Position N 45°23' E 036°40'.

Length 102 m; draft 7.5 m.

Type: Cargo ship. MMSI: 450552000.

Date/timePositionNaut miles runAvg speedWind from/ knotsBaromVisibWave heightAir tempDewpointWater temp
2018-May-22 16:00N 45°23' E 036°40'4 8.1
2018-May-22 15:30N 45°27' E 036°40'2 3.4
2018-May-22 15:00N 45°28' E 036°38'0 0.0
2018-May-22 14:30N 45°28' E 036°38'0 0.0
2018-May-22 14:00N 45°28' E 036°38'0 0.0
2018-May-22 13:30N 45°28' E 036°38'0 0.0
2018-May-22 13:00N 45°28' E 036°38'0 0.8
2018-May-22 12:30N 45°28' E 036°38'3 7.0
2018-May-22 12:00N 45°32' E 036°38'6 9.6
2018-May-22 11:21N 45°38' E 036°38'  
2018-May-18 23:15N 45°34' E 036°41'310.9
2018-May-18 23:00N 45°32' E 036°42'510.9
2018-May-18 22:30N 45°26' E 036°42'5 9.9
2018-May-18 22:00N 45°21' E 036°39'12 8.1
2018-May-18 20:31N 45°12' E 036°30'0 0.2
2018-May-18 19:49N 45°12' E 036°29'0 0.0
2018-May-18 19:27N 45°12' E 036°30'0 0.0
2018-May-18 18:59N 45°12' E 036°30'0 0.1
2018-May-18 18:30N 45°12' E 036°29'0 0.0
2018-May-18 18:00N 45°12' E 036°29'0 0.0
2018-May-18 17:30N 45°12' E 036°29'1 2.6
2018-May-18 16:59N 45°10' E 036°30'  

Dump ship's entire track history